sensor_id;sensor_type;location;lat;lon;timestamp;pressure;altitude;pressure_sealevel;temperature;humidity
14067;BME280;7108;42.684;23.350;2022-11-20T00:00:27;94625.56;;;14.68;100.00
14067;BME280;7108;42.684;23.350;2022-11-20T00:02:53;94601.16;;;14.68;100.00
14067;BME280;7108;42.684;23.350;2022-11-20T00:05:18;94564.06;;;14.54;100.00
14067;BME280;7108;42.684;23.350;2022-11-20T00:07:44;94629.38;;;14.81;100.00
14067;BME280;7108;42.684;23.350;2022-11-20T00:10:10;94607.22;;;14.89;100.00
14067;BME280;7108;42.684;23.350;2022-11-20T00:12:35;94636.47;;;15.18;100.00
14067;BME280;7108;42.684;23.350;2022-11-20T00:15:01;94610.69;;;14.93;100.00
14067;BME280;7108;42.684;23.350;2022-11-20T00:17:26;94641.94;;;15.11;100.00
14067;BME280;7108;42.684;23.350;2022-11-20T00:19:51;94615.81;;;14.81;100.00
14067;BME280;7108;42.684;23.350;2022-11-20T00:22:17;94649.75;;;15.06;100.00
14067;BME280;7108;42.684;23.350;2022-11-20T00:24:42;94643.50;;;15.09;100.00
14067;BME280;7108;42.684;23.350;2022-11-20T00:27:08;94576.50;;;15.03;100.00
14067;BME280;7108;42.684;23.350;2022-11-20T00:29:33;94551.56;;;14.71;100.00
14067;BME280;7108;42.684;23.350;2022-11-20T00:31:59;94598.56;;;15.05;100.00
14067;BME280;7108;42.684;23.350;2022-11-20T00:34:24;94629.09;;;15.22;100.00
14067;BME280;7108;42.684;23.350;2022-11-20T00:36:50;94585.88;;;14.91;100.00
14067;BME280;7108;42.684;23.350;2022-11-20T00:39:15;94642.25;;;15.24;100.00
14067;BME280;7108;42.684;23.350;2022-11-20T00:41:40;94627.19;;;15.16;100.00
14067;BME280;7108;42.684;23.350;2022-11-20T00:44:06;94589.97;;;15.13;100.00
14067;BME280;7108;42.684;23.350;2022-11-20T00:46:31;94607.53;;;15.02;100.00
14067;BME280;7108;42.684;23.350;2022-11-20T00:48:57;94602.84;;;15.02;100.00
14067;BME280;7108;42.684;23.350;2022-11-20T00:51:25;94624.38;;;15.26;100.00
14067;BME280;7108;42.684;23.350;2022-11-20T00:53:51;94618.97;;;15.23;100.00
14067;BME280;7108;42.684;23.350;2022-11-20T00:56:18;94653.06;;;15.31;100.00
14067;BME280;7108;42.684;23.350;2022-11-20T00:58:45;94603.47;;;15.20;100.00
14067;BME280;7108;42.684;23.350;2022-11-20T01:01:15;94608.53;;;15.62;100.00
14067;BME280;7108;42.684;23.350;2022-11-20T01:03:43;94601.34;;;15.81;100.00
14067;BME280;7108;42.684;23.350;2022-11-20T01:06:10;94596.97;;;15.91;100.00
14067;BME280;7108;42.684;23.350;2022-11-20T01:08:37;94623.69;;;15.96;100.00
14067;BME280;7108;42.684;23.350;2022-11-20T01:11:05;94642.84;;;16.15;100.00
14067;BME280;7108;42.684;23.350;2022-11-20T01:13:31;94591.91;;;16.23;100.00
14067;BME280;7108;42.684;23.350;2022-11-20T01:16:15;94614.44;;;16.23;100.00
14067;BME280;7108;42.684;23.350;2022-11-20T01:18:43;94566.81;;;16.12;100.00
14067;BME280;7108;42.684;23.350;2022-11-20T01:21:14;94545.13;;;16.08;100.00
14067;BME280;7108;42.684;23.350;2022-11-20T01:23:41;94542.25;;;16.48;100.00
14067;BME280;7108;42.684;23.350;2022-11-20T01:26:10;94513.38;;;16.32;100.00
14067;BME280;7108;42.684;23.350;2022-11-20T01:28:36;94482.59;;;16.38;100.00
14067;BME280;7108;42.684;23.350;2022-11-20T01:31:20;94575.63;;;17.02;100.00
14067;BME280;7108;42.684;23.350;2022-11-20T01:33:48;94553.81;;;17.05;100.00
14067;BME280;7108;42.684;23.350;2022-11-20T01:36:14;94490.25;;;16.92;100.00
14067;BME280;7108;42.684;23.350;2022-11-20T01:38:40;94549.47;;;17.08;100.00
14067;BME280;7108;42.684;23.350;2022-11-20T01:41:07;94515.72;;;17.24;100.00
14067;BME280;7108;42.684;23.350;2022-11-20T01:43:33;94504.13;;;17.20;100.00
14067;BME280;7108;42.684;23.350;2022-11-20T01:48:38;94568.25;;;17.25;100.00
14067;BME280;7108;42.684;23.350;2022-11-20T01:51:07;94540.66;;;17.23;100.00
14067;BME280;7108;42.684;23.350;2022-11-20T01:53:36;94534.44;;;17.22;100.00
14067;BME280;7108;42.684;23.350;2022-11-20T01:56:05;94555.09;;;17.43;100.00
14067;BME280;7108;42.684;23.350;2022-11-20T01:58:35;94565.16;;;17.46;100.00
14067;BME280;7108;42.684;23.350;2022-11-20T02:01:03;94553.09;;;17.47;100.00
14067;BME280;7108;42.684;23.350;2022-11-20T02:03:29;94511.66;;;17.13;100.00
14067;BME280;7108;42.684;23.350;2022-11-20T02:06:31;94563.47;;;17.32;100.00
14067;BME280;7108;42.684;23.350;2022-11-20T02:08:58;94497.81;;;16.81;100.00
14067;BME280;7108;42.684;23.350;2022-11-20T02:11:24;94494.50;;;16.93;100.00
14067;BME280;7108;42.684;23.350;2022-11-20T02:13:50;94552.16;;;17.34;100.00
14067;BME280;7108;42.684;23.350;2022-11-20T02:16:22;94548.00;;;17.03;100.00
14067;BME280;7108;42.684;23.350;2022-11-20T02:18:49;94549.41;;;16.88;100.00
14067;BME280;7108;42.684;23.350;2022-11-20T02:21:24;94549.38;;;17.37;100.00
14067;BME280;7108;42.684;23.350;2022-11-20T02:24:15;94558.03;;;17.32;100.00
14067;BME280;7108;42.684;23.350;2022-11-20T02:27:10;94575.38;;;17.42;100.00
14067;BME280;7108;42.684;23.350;2022-11-20T02:32:35;94576.88;;;17.43;100.00
14067;BME280;7108;42.684;23.350;2022-11-20T02:37:46;94565.81;;;17.08;100.00
14067;BME280;7108;42.684;23.350;2022-11-20T02:40:12;94562.63;;;17.12;100.00
14067;BME280;7108;42.684;23.350;2022-11-20T02:42:38;94497.16;;;16.74;100.00
14067;BME280;7108;42.684;23.350;2022-11-20T02:45:04;94512.91;;;16.86;100.00
14067;BME280;7108;42.684;23.350;2022-11-20T02:47:30;94570.50;;;17.30;100.00
14067;BME280;7108;42.684;23.350;2022-11-20T02:49:56;94569.84;;;17.45;100.00
14067;BME280;7108;42.684;23.350;2022-11-20T02:52:21;94542.41;;;17.56;100.00
14067;BME280;7108;42.684;23.350;2022-11-20T02:54:47;94560.66;;;17.78;100.00
14067;BME280;7108;42.684;23.350;2022-11-20T02:57:12;94571.06;;;17.83;100.00
14067;BME280;7108;42.684;23.350;2022-11-20T02:59:38;94565.44;;;17.93;100.00
14067;BME280;7108;42.684;23.350;2022-11-20T03:02:03;94607.84;;;18.14;100.00
14067;BME280;7108;42.684;23.350;2022-11-20T03:04:30;94600.72;;;18.00;100.00
14067;BME280;7108;42.684;23.350;2022-11-20T03:06:55;94600.09;;;17.93;100.00
14067;BME280;7108;42.684;23.350;2022-11-20T03:09:21;94579.19;;;17.86;100.00
14067;BME280;7108;42.684;23.350;2022-11-20T03:11:46;94598.00;;;18.00;100.00
14067;BME280;7108;42.684;23.350;2022-11-20T03:14:12;94576.03;;;17.88;100.00
14067;BME280;7108;42.684;23.350;2022-11-20T03:16:37;94586.44;;;17.93;100.00
14067;BME280;7108;42.684;23.350;2022-11-20T03:19:03;94628.78;;;18.20;100.00
14067;BME280;7108;42.684;23.350;2022-11-20T03:21:28;94592.53;;;18.00;100.00
14067;BME280;7108;42.684;23.350;2022-11-20T03:23:54;94610.44;;;18.01;100.00
14067;BME280;7108;42.684;23.350;2022-11-20T03:26:23;94602.06;;;17.92;100.00
14067;BME280;7108;42.684;23.350;2022-11-20T03:28:51;94631.50;;;18.01;100.00
14067;BME280;7108;42.684;23.350;2022-11-20T03:31:20;94633.25;;;18.11;100.00
14067;BME280;7108;42.684;23.350;2022-11-20T03:33:46;94636.56;;;17.99;100.00
14067;BME280;7108;42.684;23.350;2022-11-20T03:36:19;94549.22;;;17.21;100.00
14067;BME280;7108;42.684;23.350;2022-11-20T03:38:45;94638.38;;;18.05;100.00
14067;BME280;7108;42.684;23.350;2022-11-20T03:41:14;94636.44;;;17.86;100.00
14067;BME280;7108;42.684;23.350;2022-11-20T03:43:40;94616.97;;;17.65;100.00
14067;BME280;7108;42.684;23.350;2022-11-20T03:46:07;94532.84;;;17.25;100.00
14067;BME280;7108;42.684;23.350;2022-11-20T03:48:32;94625.78;;;17.92;100.00
14067;BME280;7108;42.684;23.350;2022-11-20T03:51:13;94642.72;;;18.03;100.00
14067;BME280;7108;42.684;23.350;2022-11-20T03:53:40;94648.59;;;18.01;100.00
14067;BME280;7108;42.684;23.350;2022-11-20T03:56:07;94623.78;;;17.96;100.00
14067;BME280;7108;42.684;23.350;2022-11-20T03:58:34;94643.84;;;18.05;100.00
14067;BME280;7108;42.684;23.350;2022-11-20T04:01:13;94633.16;;;17.95;100.00
14067;BME280;7108;42.684;23.350;2022-11-20T04:03:40;94642.50;;;17.94;100.00
14067;BME280;7108;42.684;23.350;2022-11-20T04:06:09;94638.31;;;17.89;100.00
14067;BME280;7108;42.684;23.350;2022-11-20T04:08:34;94624.41;;;17.84;100.00
14067;BME280;7108;42.684;23.350;2022-11-20T04:11:16;94660.69;;;18.00;100.00
14067;BME280;7108;42.684;23.350;2022-11-20T04:13:45;94650.75;;;17.90;100.00
14067;BME280;7108;42.684;23.350;2022-11-20T04:16:11;94656.75;;;17.82;100.00
14067;BME280;7108;42.684;23.350;2022-11-20T04:18:37;94642.25;;;17.88;100.00
14067;BME280;7108;42.684;23.350;2022-11-20T04:21:03;94645.59;;;17.96;100.00
14067;BME280;7108;42.684;23.350;2022-11-20T04:23:29;94654.34;;;18.07;100.00
14067;BME280;7108;42.684;23.350;2022-11-20T04:25:54;94638.59;;;17.95;100.00
14067;BME280;7108;42.684;23.350;2022-11-20T04:28:25;94646.38;;;17.96;100.00
14067;BME280;7108;42.684;23.350;2022-11-20T04:30:50;94613.22;;;17.78;100.00
14067;BME280;7108;42.684;23.350;2022-11-20T04:33:16;94611.91;;;17.64;100.00
14067;BME280;7108;42.684;23.350;2022-11-20T04:35:41;94618.97;;;17.61;100.00
14067;BME280;7108;42.684;23.350;2022-11-20T04:38:07;94663.75;;;17.83;100.00
14067;BME280;7108;42.684;23.350;2022-11-20T04:40:32;94649.25;;;17.67;100.00
14067;BME280;7108;42.684;23.350;2022-11-20T04:42:58;94658.81;;;17.74;100.00
14067;BME280;7108;42.684;23.350;2022-11-20T04:45:23;94636.22;;;17.55;100.00
14067;BME280;7108;42.684;23.350;2022-11-20T04:47:49;94644.97;;;17.66;100.00
14067;BME280;7108;42.684;23.350;2022-11-20T04:50:14;94632.59;;;17.61;100.00
14067;BME280;7108;42.684;23.350;2022-11-20T04:52:40;94618.69;;;17.56;100.00
14067;BME280;7108;42.684;23.350;2022-11-20T04:55:06;94603.63;;;17.48;100.00
14067;BME280;7108;42.684;23.350;2022-11-20T04:57:31;94595.94;;;17.43;100.00
14067;BME280;7108;42.684;23.350;2022-11-20T04:59:57;94648.34;;;17.73;100.00
14067;BME280;7108;42.684;23.350;2022-11-20T05:02:22;94611.22;;;17.60;100.00
14067;BME280;7108;42.684;23.350;2022-11-20T05:04:47;94599.19;;;17.57;100.00
14067;BME280;7108;42.684;23.350;2022-11-20T05:07:13;94545.22;;;17.29;100.00
14067;BME280;7108;42.684;23.350;2022-11-20T05:09:38;94577.09;;;17.32;100.00
14067;BME280;7108;42.684;23.350;2022-11-20T05:12:04;94629.16;;;17.57;100.00
14067;BME280;7108;42.684;23.350;2022-11-20T05:14:29;94602.81;;;17.51;100.00
14067;BME280;7108;42.684;23.350;2022-11-20T05:16:55;94571.44;;;17.43;100.00
14067;BME280;7108;42.684;23.350;2022-11-20T05:19:20;94609.06;;;17.71;100.00
14067;BME280;7108;42.684;23.350;2022-11-20T05:21:46;94575.91;;;17.33;100.00
14067;BME280;7108;42.684;23.350;2022-11-20T05:24:11;94587.06;;;17.39;100.00
14067;BME280;7108;42.684;23.350;2022-11-20T05:26:39;94550.34;;;17.24;100.00
14067;BME280;7108;42.684;23.350;2022-11-20T05:29:09;94579.28;;;17.41;100.00
14067;BME280;7108;42.684;23.350;2022-11-20T05:31:34;94599.69;;;17.52;100.00
14067;BME280;7108;42.684;23.350;2022-11-20T05:34:01;94607.75;;;17.59;100.00
14067;BME280;7108;42.684;23.350;2022-11-20T05:36:26;94587.59;;;17.30;100.00
14067;BME280;7108;42.684;23.350;2022-11-20T05:38:52;94615.22;;;17.32;100.00
14067;BME280;7108;42.684;23.350;2022-11-20T05:41:19;94637.63;;;17.40;100.00
14067;BME280;7108;42.684;23.350;2022-11-20T05:43:47;94591.53;;;17.03;100.00
14067;BME280;7108;42.684;23.350;2022-11-20T05:46:14;94632.72;;;17.31;100.00
14067;BME280;7108;42.684;23.350;2022-11-20T05:48:41;94609.75;;;17.06;100.00
14067;BME280;7108;42.684;23.350;2022-11-20T05:51:09;94530.31;;;16.42;100.00
14067;BME280;7108;42.684;23.350;2022-11-20T05:53:35;94635.34;;;17.12;100.00
14067;BME280;7108;42.684;23.350;2022-11-20T05:56:04;94603.38;;;16.93;100.00
14067;BME280;7108;42.684;23.350;2022-11-20T05:58:31;94618.47;;;16.98;100.00
14067;BME280;7108;42.684;23.350;2022-11-20T06:01:07;94547.63;;;16.52;100.00
14067;BME280;7108;42.684;23.350;2022-11-20T06:03:33;94616.22;;;16.93;100.00
14067;BME280;7108;42.684;23.350;2022-11-20T06:05:59;94607.63;;;16.94;100.00
14067;BME280;7108;42.684;23.350;2022-11-20T06:08:25;94560.44;;;16.78;100.00
14067;BME280;7108;42.684;23.350;2022-11-20T06:10:50;94594.97;;;17.07;100.00
14067;BME280;7108;42.684;23.350;2022-11-20T06:13:15;94591.25;;;16.98;100.00
14067;BME280;7108;42.684;23.350;2022-11-20T06:15:41;94627.00;;;17.22;100.00
14067;BME280;7108;42.684;23.350;2022-11-20T06:18:06;94636.09;;;17.39;100.00
14067;BME280;7108;42.684;23.350;2022-11-20T06:20:32;94592.19;;;17.10;100.00
14067;BME280;7108;42.684;23.350;2022-11-20T06:22:57;94640.47;;;17.33;100.00
14067;BME280;7108;42.684;23.350;2022-11-20T06:25:23;94584.13;;;17.04;100.00
14067;BME280;7108;42.684;23.350;2022-11-20T06:27:48;94644.53;;;17.21;100.00
14067;BME280;7108;42.684;23.350;2022-11-20T06:30:14;94632.88;;;17.21;100.00
14067;BME280;7108;42.684;23.350;2022-11-20T06:32:39;94645.59;;;17.31;100.00
14067;BME280;7108;42.684;23.350;2022-11-20T06:35:05;94622.75;;;17.21;100.00
14067;BME280;7108;42.684;23.350;2022-11-20T06:37:33;94625.72;;;17.30;100.00
14067;BME280;7108;42.684;23.350;2022-11-20T06:39:58;94640.66;;;17.45;100.00
14067;BME280;7108;42.684;23.350;2022-11-20T06:42:24;94625.25;;;17.35;100.00
14067;BME280;7108;42.684;23.350;2022-11-20T06:44:49;94617.97;;;17.29;100.00
14067;BME280;7108;42.684;23.350;2022-11-20T06:47:15;94600.59;;;17.19;100.00
14067;BME280;7108;42.684;23.350;2022-11-20T06:49:40;94626.56;;;17.27;100.00
14067;BME280;7108;42.684;23.350;2022-11-20T06:52:06;94592.34;;;17.26;100.00
14067;BME280;7108;42.684;23.350;2022-11-20T06:54:31;94643.97;;;17.56;100.00
14067;BME280;7108;42.684;23.350;2022-11-20T06:56:57;94659.25;;;17.50;100.00
14067;BME280;7108;42.684;23.350;2022-11-20T06:59:22;94661.16;;;17.53;100.00
14067;BME280;7108;42.684;23.350;2022-11-20T07:01:48;94611.41;;;17.26;100.00
14067;BME280;7108;42.684;23.350;2022-11-20T07:04:13;94632.47;;;17.45;100.00
14067;BME280;7108;42.684;23.350;2022-11-20T07:06:38;94676.44;;;17.70;100.00
14067;BME280;7108;42.684;23.350;2022-11-20T07:09:04;94636.22;;;17.55;100.00
14067;BME280;7108;42.684;23.350;2022-11-20T07:11:29;94658.66;;;17.62;100.00
14067;BME280;7108;42.684;23.350;2022-11-20T07:13:56;94634.50;;;17.41;100.00
14067;BME280;7108;42.684;23.350;2022-11-20T07:16:22;94615.63;;;17.31;100.00
14067;BME280;7108;42.684;23.350;2022-11-20T07:18:47;94648.78;;;17.49;100.00
14067;BME280;7108;42.684;23.350;2022-11-20T07:21:13;94643.03;;;17.43;100.00
14067;BME280;7108;42.684;23.350;2022-11-20T07:23:38;94666.13;;;17.58;100.00
14067;BME280;7108;42.684;23.350;2022-11-20T07:26:05;94674.41;;;17.74;100.00
14067;BME280;7108;42.684;23.350;2022-11-20T07:28:31;94655.94;;;17.39;100.00
14067;BME280;7108;42.684;23.350;2022-11-20T07:30:56;94665.53;;;17.47;100.00
14067;BME280;7108;42.684;23.350;2022-11-20T07:33:22;94671.16;;;17.60;100.00
14067;BME280;7108;42.684;23.350;2022-11-20T07:35:47;94684.06;;;17.56;100.00
14067;BME280;7108;42.684;23.350;2022-11-20T07:38:13;94654.91;;;17.53;100.00
14067;BME280;7108;42.684;23.350;2022-11-20T07:40:38;94653.56;;;17.41;100.00
14067;BME280;7108;42.684;23.350;2022-11-20T07:43:04;94613.16;;;17.13;100.00
14067;BME280;7108;42.684;23.350;2022-11-20T07:45:29;94661.41;;;17.39;100.00
14067;BME280;7108;42.684;23.350;2022-11-20T07:47:54;94663.66;;;17.44;100.00
14067;BME280;7108;42.684;23.350;2022-11-20T07:50:20;94668.19;;;17.51;100.00
14067;BME280;7108;42.684;23.350;2022-11-20T07:52:46;94681.81;;;17.51;100.00
14067;BME280;7108;42.684;23.350;2022-11-20T07:55:11;94680.66;;;17.52;100.00
14067;BME280;7108;42.684;23.350;2022-11-20T07:57:37;94673.19;;;17.56;100.00
14067;BME280;7108;42.684;23.350;2022-11-20T08:00:04;94662.91;;;17.40;100.00
14067;BME280;7108;42.684;23.350;2022-11-20T08:02:33;94681.81;;;17.51;100.00
14067;BME280;7108;42.684;23.350;2022-11-20T08:04:58;94636.34;;;17.21;100.00
14067;BME280;7108;42.684;23.350;2022-11-20T08:07:24;94610.13;;;17.08;100.00
14067;BME280;7108;42.684;23.350;2022-11-20T08:09:49;94655.59;;;17.37;100.00
14067;BME280;7108;42.684;23.350;2022-11-20T08:12:19;94646.66;;;17.37;100.00
14067;BME280;7108;42.684;23.350;2022-11-20T08:15:05;94655.06;;;17.46;100.00
14067;BME280;7108;42.684;23.350;2022-11-20T08:17:30;94626.19;;;17.25;100.00
14067;BME280;7108;42.684;23.350;2022-11-20T08:19:56;94629.19;;;17.34;100.00
14067;BME280;7108;42.684;23.350;2022-11-20T08:22:22;94606.25;;;17.32;100.00
14067;BME280;7108;42.684;23.350;2022-11-20T08:24:47;94648.78;;;17.49;100.00
14067;BME280;7108;42.684;23.350;2022-11-20T08:27:13;94654.88;;;17.56;100.00
14067;BME280;7108;42.684;23.350;2022-11-20T08:29:39;94568.63;;;17.01;100.00
14067;BME280;7108;42.684;23.350;2022-11-20T08:32:04;94656.88;;;17.52;100.00
14067;BME280;7108;42.684;23.350;2022-11-20T08:34:29;94646.00;;;17.52;100.00
14067;BME280;7108;42.684;23.350;2022-11-20T08:36:55;94652.81;;;17.41;100.00
14067;BME280;7108;42.684;23.350;2022-11-20T08:39:20;94672.88;;;17.50;100.00
14067;BME280;7108;42.684;23.350;2022-11-20T08:41:46;94659.38;;;17.43;100.00
14067;BME280;7108;42.684;23.350;2022-11-20T08:44:11;94681.13;;;17.47;100.00
14067;BME280;7108;42.684;23.350;2022-11-20T08:46:39;94703.28;;;17.45;100.00
14067;BME280;7108;42.684;23.350;2022-11-20T08:49:08;94669.09;;;17.18;100.00
14067;BME280;7108;42.684;23.350;2022-11-20T08:51:34;94678.88;;;17.12;100.00
14067;BME280;7108;42.684;23.350;2022-11-20T08:54:00;94687.91;;;17.09;100.00
14067;BME280;7108;42.684;23.350;2022-11-20T08:56:26;94700.16;;;17.20;100.00
14067;BME280;7108;42.684;23.350;2022-11-20T08:58:51;94724.69;;;17.47;100.00
14067;BME280;7108;42.684;23.350;2022-11-20T09:01:18;94688.84;;;17.25;100.00
14067;BME280;7108;42.684;23.350;2022-11-20T09:03:44;94651.00;;;17.05;100.00
14067;BME280;7108;42.684;23.350;2022-11-20T09:06:09;94700.16;;;17.20;100.00
14067;BME280;7108;42.684;23.350;2022-11-20T09:08:35;94673.66;;;16.98;100.00
14067;BME280;7108;42.684;23.350;2022-11-20T09:11:01;94724.38;;;17.41;100.00
14067;BME280;7108;42.684;23.350;2022-11-20T09:13:27;94720.22;;;17.33;100.00
14067;BME280;7108;42.684;23.350;2022-11-20T09:15:58;94731.84;;;17.37;100.00
14067;BME280;7108;42.684;23.350;2022-11-20T09:18:25;94718.47;;;17.20;100.00
14067;BME280;7108;42.684;23.350;2022-11-20T09:20:51;94692.16;;;17.10;100.00
14067;BME280;7108;42.684;23.350;2022-11-20T09:23:16;94747.38;;;17.10;100.00
14067;BME280;7108;42.684;23.350;2022-11-20T09:25:42;94711.22;;;16.50;100.00
14067;BME280;7108;42.684;23.350;2022-11-20T09:28:08;94736.16;;;16.45;100.00
14067;BME280;7108;42.684;23.350;2022-11-20T09:30:33;94714.03;;;16.43;100.00
14067;BME280;7108;42.684;23.350;2022-11-20T09:32:59;94724.78;;;16.54;100.00
14067;BME280;7108;42.684;23.350;2022-11-20T09:35:24;94732.56;;;16.52;100.00
14067;BME280;7108;42.684;23.350;2022-11-20T09:37:50;94738.13;;;16.42;100.00
14067;BME280;7108;42.684;23.350;2022-11-20T09:40:24;94704.66;;;16.11;100.00
14067;BME280;7108;42.684;23.350;2022-11-20T09:43:01;94718.75;;;16.36;100.00
14067;BME280;7108;42.684;23.350;2022-11-20T09:46:27;94702.06;;;16.38;100.00
14067;BME280;7108;42.684;23.350;2022-11-20T09:54:16;94707.84;;;16.40;100.00
14067;BME280;7108;42.684;23.350;2022-11-20T09:56:45;94690.75;;;16.42;100.00
14067;BME280;7108;42.684;23.350;2022-11-20T10:01:46;94675.44;;;16.19;100.00
14067;BME280;7108;42.684;23.350;2022-11-20T10:04:17;94694.69;;;16.35;100.00
14067;BME280;7108;42.684;23.350;2022-11-20T10:07:05;94683.88;;;16.31;100.00
14067;BME280;7108;42.684;23.350;2022-11-20T10:09:39;94675.38;;;16.26;100.00
14067;BME280;7108;42.684;23.350;2022-11-20T10:12:23;94666.97;;;16.13;100.00
14067;BME280;7108;42.684;23.350;2022-11-20T10:15:26;94668.06;;;16.19;100.00
14067;BME280;7108;42.684;23.350;2022-11-20T10:18:02;94690.13;;;16.25;100.00
14067;BME280;7108;42.684;23.350;2022-11-20T10:20:50;94666.94;;;16.17;100.00
14067;BME280;7108;42.684;23.350;2022-11-20T10:31:52;94651.19;;;16.01;100.00
14067;BME280;7108;42.684;23.350;2022-11-20T10:36:59;94569.22;;;15.36;100.00
14067;BME280;7108;42.684;23.350;2022-11-20T10:39:58;94669.50;;;15.94;100.00
14067;BME280;7108;42.684;23.350;2022-11-20T10:42:34;94688.66;;;15.83;100.00
14067;BME280;7108;42.684;23.350;2022-11-20T10:45:16;94677.38;;;15.85;100.00
14067;BME280;7108;42.684;23.350;2022-11-20T10:47:45;94703.97;;;16.00;100.00
14067;BME280;7108;42.684;23.350;2022-11-20T10:50:13;94647.97;;;15.76;100.00
14067;BME280;7108;42.684;23.350;2022-11-20T10:53:02;94671.72;;;16.06;100.00
14067;BME280;7108;42.684;23.350;2022-11-20T11:01:14;94688.16;;;15.92;100.00
14067;BME280;7108;42.684;23.350;2022-11-20T11:03:41;94677.94;;;16.03;100.00
14067;BME280;7108;42.684;23.350;2022-11-20T11:06:16;94719.06;;;16.08;100.00
14067;BME280;7108;42.684;23.350;2022-11-20T11:08:47;94730.81;;;15.98;100.00
14067;BME280;7108;42.684;23.350;2022-11-20T11:11:33;94711.34;;;15.60;100.00
14067;BME280;7108;42.684;23.350;2022-11-20T11:16:34;94758.63;;;15.11;100.00
14067;BME280;7108;42.684;23.350;2022-11-20T11:21:30;94742.13;;;14.78;100.00
14067;BME280;7108;42.684;23.350;2022-11-20T11:24:00;94752.59;;;14.73;100.00
14067;BME280;7108;42.684;23.350;2022-11-20T11:26:27;94741.38;;;14.74;100.00
14067;BME280;7108;42.684;23.350;2022-11-20T11:29:00;94733.28;;;14.67;100.00
14067;BME280;7108;42.684;23.350;2022-11-20T11:31:31;94711.66;;;14.50;100.00
14067;BME280;7108;42.684;23.350;2022-11-20T11:34:13;94716.03;;;14.27;100.00
14067;BME280;7108;42.684;23.350;2022-11-20T11:36:39;94733.84;;;14.24;100.00
14067;BME280;7108;42.684;23.350;2022-11-20T11:39:10;94719.06;;;14.36;100.00
14067;BME280;7108;42.684;23.350;2022-11-20T11:41:36;94708.69;;;14.06;100.00
14067;BME280;7108;42.684;23.350;2022-11-20T11:44:16;94724.97;;;14.20;100.00
14067;BME280;7108;42.684;23.350;2022-11-20T11:47:02;94690.94;;;13.98;100.00
14067;BME280;7108;42.684;23.350;2022-11-20T11:49:29;94702.50;;;14.02;100.00
14067;BME280;7108;42.684;23.350;2022-11-20T11:54:50;94716.44;;;14.18;100.00
14067;BME280;7108;42.684;23.350;2022-11-20T12:00:05;94718.38;;;14.18;100.00
14067;BME280;7108;42.684;23.350;2022-11-20T12:13:00;94681.22;;;14.18;100.00
14067;BME280;7108;42.684;23.350;2022-11-20T12:15:32;94723.66;;;14.52;100.00
14067;BME280;7108;42.684;23.350;2022-11-20T12:25:48;94716.38;;;14.32;100.00
14067;BME280;7108;42.684;23.350;2022-11-20T12:28:52;94700.09;;;14.36;100.00
14067;BME280;7108;42.684;23.350;2022-11-20T12:31:38;94689.78;;;13.92;100.00
14067;BME280;7108;42.684;23.350;2022-11-20T12:37:30;94717.22;;;14.08;100.00
14067;BME280;7108;42.684;23.350;2022-11-20T12:40:34;94700.56;;;14.06;100.00
14067;BME280;7108;42.684;23.350;2022-11-20T12:46:56;94605.34;;;14.08;100.00
14067;BME280;7108;42.684;23.350;2022-11-20T12:57:36;94667.66;;;14.25;100.00
14067;BME280;7108;42.684;23.350;2022-11-20T13:00:19;94674.63;;;14.16;100.00
14067;BME280;7108;42.684;23.350;2022-11-20T13:08:33;94656.91;;;13.87;100.00
14067;BME280;7108;42.684;23.350;2022-11-20T13:11:06;94631.00;;;13.75;100.00
14067;BME280;7108;42.684;23.350;2022-11-20T13:18:38;94628.75;;;13.50;100.00
14067;BME280;7108;42.684;23.350;2022-11-20T13:21:44;94645.41;;;13.31;100.00
14067;BME280;7108;42.684;23.350;2022-11-20T13:27:18;94668.16;;;13.61;100.00
14067;BME280;7108;42.684;23.350;2022-11-20T13:30:31;94634.13;;;13.67;100.00
14067;BME280;7108;42.684;23.350;2022-11-20T13:32:31;94663.16;;;13.56;100.00
14067;BME280;7108;42.684;23.350;2022-11-20T13:35:01;94726.56;;;13.62;100.00
14067;BME280;7108;42.684;23.350;2022-11-20T13:37:37;94695.63;;;13.63;100.00
14067;BME280;7108;42.684;23.350;2022-11-20T13:40:11;94675.13;;;13.66;100.00
14067;BME280;7108;42.684;23.350;2022-11-20T13:42:45;94707.63;;;13.73;100.00
14067;BME280;7108;42.684;23.350;2022-11-20T13:45:24;94683.63;;;13.78;100.00
14067;BME280;7108;42.684;23.350;2022-11-20T13:47:54;94628.34;;;13.62;100.00
14067;BME280;7108;42.684;23.350;2022-11-20T13:51:09;94643.84;;;13.58;100.00
14067;BME280;7108;42.684;23.350;2022-11-20T13:56:24;94667.75;;;13.80;100.00
14067;BME280;7108;42.684;23.350;2022-11-20T13:59:52;94689.78;;;13.89;100.00
14067;BME280;7108;42.684;23.350;2022-11-20T14:01:57;94692.53;;;13.68;100.00
14067;BME280;7108;42.684;23.350;2022-11-20T14:04:29;94685.16;;;13.82;100.00
14067;BME280;7108;42.684;23.350;2022-11-20T14:06:57;94683.56;;;14.02;100.00
14067;BME280;7108;42.684;23.350;2022-11-20T14:09:28;94707.94;;;14.06;100.00
14067;BME280;7108;42.684;23.350;2022-11-20T14:11:54;94678.16;;;13.95;100.00
14067;BME280;7108;42.684;23.350;2022-11-20T14:14:22;94657.66;;;13.94;100.00
14067;BME280;7108;42.684;23.350;2022-11-20T14:16:49;94661.91;;;13.99;100.00
14067;BME280;7108;42.684;23.350;2022-11-20T14:21:47;94686.22;;;14.20;100.00
14067;BME280;7108;42.684;23.350;2022-11-20T14:24:14;94666.53;;;14.02;100.00
14067;BME280;7108;42.684;23.350;2022-11-20T14:26:43;94647.94;;;14.07;100.00
14067;BME280;7108;42.684;23.350;2022-11-20T14:29:21;94654.09;;;14.22;100.00
14067;BME280;7108;42.684;23.350;2022-11-20T14:31:52;94680.31;;;14.42;100.00
14067;BME280;7108;42.684;23.350;2022-11-20T14:34:22;94695.81;;;14.42;100.00
14067;BME280;7108;42.684;23.350;2022-11-20T14:37:00;94695.81;;;14.48;100.00